createdAt,value
2018-06-29T00:00:15.245Z,6.33
2018-06-29T00:02:43.679Z,6.50
2018-06-29T00:05:12.158Z,6.40
2018-06-29T00:07:40.654Z,5.63
2018-06-29T00:10:09.178Z,5.77
2018-06-29T00:12:37.601Z,6.60
2018-06-29T00:15:06.083Z,6.53
2018-06-29T00:17:34.523Z,6.70
2018-06-29T00:20:02.985Z,6.23
2018-06-29T00:22:31.423Z,6.50
2018-06-29T00:24:59.881Z,6.03
2018-06-29T00:27:28.146Z,6.13
2018-06-29T00:29:56.533Z,6.23
2018-06-29T00:32:24.649Z,5.90
2018-06-29T00:34:53.070Z,6.43
2018-06-29T00:37:21.526Z,6.33
2018-06-29T00:39:49.957Z,6.07
2018-06-29T00:42:18.418Z,6.23
2018-06-29T00:44:46.853Z,5.83
2018-06-29T00:47:15.313Z,6.17
2018-06-29T00:49:43.773Z,5.90
2018-06-29T00:52:11.914Z,5.67
2018-06-29T00:54:40.433Z,6.10
2018-06-29T00:57:08.895Z,6.53
2018-06-29T00:59:37.313Z,6.57
2018-06-29T01:02:05.817Z,6.20
2018-06-29T01:04:34.252Z,5.77
2018-06-29T01:07:02.711Z,6.73
2018-06-29T01:09:31.153Z,6.40
2018-06-29T01:11:59.661Z,5.93
2018-06-29T01:14:28.102Z,6.40
2018-06-29T01:16:56.611Z,6.20
2018-06-29T01:19:25.040Z,6.00
2018-06-29T01:21:53.513Z,6.07
2018-06-29T01:24:21.916Z,6.03
2018-06-29T01:26:50.330Z,6.10
2018-06-29T01:29:18.835Z,6.07
2018-06-29T01:31:47.281Z,5.90
2018-06-29T01:34:15.747Z,6.30
2018-06-29T01:36:44.213Z,6.43
2018-06-29T01:39:12.677Z,5.83
2018-06-29T01:41:41.115Z,5.63
2018-06-29T01:44:09.597Z,6.00
2018-06-29T01:46:38.033Z,6.37
2018-06-29T01:49:06.482Z,6.07
2018-06-29T01:51:34.609Z,6.23
2018-06-29T01:54:03.057Z,6.27
2018-06-29T01:56:31.502Z,5.57
2018-06-29T01:58:59.994Z,6.27
2018-06-29T02:01:28.119Z,6.10
2018-06-29T02:03:56.569Z,6.20
2018-06-29T02:06:25.019Z,6.00
2018-06-29T02:08:53.132Z,5.67
2018-06-29T02:11:21.627Z,5.43
2018-06-29T02:13:50.041Z,6.40
2018-06-29T02:16:18.465Z,6.27
2018-06-29T02:18:46.902Z,5.43
2018-06-29T02:21:15.361Z,5.70
2018-06-29T02:23:43.780Z,5.17
2018-06-29T02:26:12.209Z,5.43
2018-06-29T02:28:40.702Z,5.20
2018-06-29T02:31:09.162Z,5.53
2018-06-29T02:33:37.602Z,5.83
2018-06-29T02:36:06.087Z,6.00
2018-06-29T02:38:34.609Z,5.70
2018-06-29T02:41:03.026Z,6.07
2018-06-29T02:43:31.444Z,5.90
2018-06-29T02:45:59.906Z,5.90
2018-06-29T02:48:28.314Z,5.33
2018-06-29T02:50:56.748Z,5.87
2018-06-29T02:53:25.181Z,5.90
2018-06-29T02:55:53.607Z,5.70
2018-06-29T02:58:21.761Z,6.37
2018-06-29T03:00:50.186Z,5.83
2018-06-29T03:03:18.609Z,5.80
2018-06-29T03:05:47.094Z,5.43
2018-06-29T03:08:15.513Z,5.27
2018-06-29T03:10:43.938Z,5.00
2018-06-29T03:13:12.362Z,5.27
2018-06-29T03:15:40.805Z,5.40
2018-06-29T03:18:09.229Z,5.93
2018-06-29T03:20:37.688Z,5.67
2018-06-29T03:23:06.120Z,5.30
2018-06-29T03:25:34.563Z,5.73
2018-06-29T03:28:03.026Z,5.73
2018-06-29T03:30:31.162Z,5.83
2018-06-29T03:32:59.596Z,5.63
2018-06-29T03:35:28.059Z,5.53
2018-06-29T03:37:56.501Z,5.47
2018-06-29T03:40:24.977Z,5.30
2018-06-29T03:42:53.349Z,5.80
2018-06-29T03:45:21.766Z,5.40
2018-06-29T03:47:50.192Z,6.07
2018-06-29T03:50:18.629Z,5.73
2018-06-29T03:52:47.065Z,5.77
2018-06-29T03:55:15.490Z,6.47
2018-06-29T03:57:43.946Z,5.50
2018-06-29T04:00:12.398Z,5.10
2018-06-29T04:02:40.875Z,5.67
2018-06-29T04:05:09.286Z,5.80
2018-06-29T04:07:37.737Z,5.83
2018-06-29T04:10:06.156Z,5.53
2018-06-29T04:12:34.602Z,5.93
2018-06-29T04:15:03.110Z,5.70
2018-06-29T04:17:31.580Z,5.90
2018-06-29T04:19:59.991Z,6.13
2018-06-29T04:22:28.117Z,5.63
2018-06-29T04:25:01.775Z,6.03
2018-06-29T04:27:30.383Z,5.40
2018-06-29T04:29:58.837Z,5.07
2018-06-29T04:32:27.253Z,5.30
2018-06-29T04:34:55.737Z,5.00
2018-06-29T04:37:24.173Z,5.00
2018-06-29T04:39:52.803Z,4.43
2018-06-29T04:42:21.219Z,5.10
2018-06-29T04:44:49.693Z,4.93
2018-06-29T04:47:18.541Z,4.43
2018-06-29T04:49:46.937Z,4.63
2018-06-29T04:52:15.368Z,4.50
2018-06-29T04:54:43.833Z,5.27
2018-06-29T04:57:12.281Z,4.50
2018-06-29T04:59:40.742Z,5.13
2018-06-29T05:02:09.170Z,4.23
2018-06-29T05:04:37.643Z,4.87
2018-06-29T05:07:06.074Z,4.60
2018-06-29T05:09:34.546Z,4.87
2018-06-29T05:12:03.017Z,5.00
2018-06-29T05:14:31.433Z,4.63
2018-06-29T05:16:59.878Z,4.73
2018-06-29T05:19:28.340Z,4.20
2018-06-29T05:21:56.795Z,4.50
2018-06-29T05:24:25.496Z,4.00
2018-06-29T05:26:53.923Z,4.60
2018-06-29T05:29:22.490Z,4.53
2018-06-29T05:31:50.938Z,4.30
2018-06-29T05:34:19.074Z,4.00
2018-06-29T05:36:47.538Z,4.23
2018-06-29T05:39:15.997Z,4.30
2018-06-29T05:41:44.553Z,4.33
2018-06-29T05:44:12.937Z,4.20
2018-06-29T05:46:41.074Z,3.90
2018-06-29T05:49:10.004Z,4.73
2018-06-29T05:51:38.725Z,3.97
2018-06-29T05:54:07.349Z,4.20
2018-06-29T05:56:35.854Z,4.07
2018-06-29T05:59:04.668Z,4.53
2018-06-29T06:01:33.149Z,4.03
2018-06-29T06:04:01.593Z,4.27
2018-06-29T06:06:30.039Z,4.00
2018-06-29T06:08:58.533Z,3.67
2018-06-29T06:11:26.994Z,4.10
2018-06-29T06:13:55.439Z,3.67
2018-06-29T06:16:23.882Z,3.17
2018-06-29T06:18:56.445Z,4.43
2018-06-29T06:21:24.875Z,4.60
2018-06-29T06:23:53.338Z,4.23
2018-06-29T06:26:21.792Z,3.40
2018-06-29T06:28:50.233Z,3.63
2018-06-29T06:31:18.665Z,3.70
2018-06-29T06:33:47.113Z,3.73
2018-06-29T06:36:15.558Z,3.73
2018-06-29T06:38:44.020Z,3.67
2018-06-29T06:41:12.422Z,3.90
2018-06-29T06:43:40.874Z,3.93
2018-06-29T06:46:09.326Z,3.57
2018-06-29T06:48:37.781Z,3.53
2018-06-29T06:51:06.254Z,3.73
2018-06-29T06:53:34.764Z,3.80
2018-06-29T06:56:03.180Z,3.43
2018-06-29T06:58:31.573Z,3.43
2018-06-29T07:01:00.023Z,3.70
2018-06-29T07:03:28.462Z,3.53
2018-06-29T07:05:56.882Z,3.53
2018-06-29T07:08:25.294Z,3.73
2018-06-29T07:10:53.781Z,3.37
2018-06-29T07:13:22.226Z,3.77
2018-06-29T07:15:50.669Z,3.90
2018-06-29T07:18:19.107Z,3.43
2018-06-29T07:20:47.541Z,3.37
2018-06-29T07:23:16.058Z,2.97
2018-06-29T07:25:44.529Z,3.40
2018-06-29T07:28:12.992Z,3.67
2018-06-29T07:30:41.438Z,3.20
2018-06-29T07:33:09.866Z,3.20
2018-06-29T07:35:38.310Z,3.60
2018-06-29T07:38:06.754Z,3.80
2018-06-29T07:40:35.242Z,3.40
2018-06-29T07:43:03.665Z,3.60
2018-06-29T07:45:32.133Z,3.70
2018-06-29T07:48:00.574Z,3.63
2018-06-29T07:50:29.017Z,3.87
2018-06-29T07:52:57.235Z,3.60
2018-06-29T07:55:25.630Z,3.50
2018-06-29T07:57:54.074Z,3.67
2018-06-29T08:00:22.489Z,3.80
2018-06-29T08:02:50.962Z,3.60
2018-06-29T08:05:19.397Z,3.67
2018-06-29T08:07:47.829Z,3.80
2018-06-29T08:10:16.270Z,3.83
2018-06-29T08:12:44.710Z,3.30
2018-06-29T08:15:13.241Z,3.60
2018-06-29T08:17:41.657Z,4.07
2018-06-29T08:20:10.147Z,3.90
2018-06-29T08:22:38.550Z,3.73
2018-06-29T08:25:13.716Z,3.63
2018-06-29T08:27:42.320Z,3.47
2018-06-29T08:30:11.780Z,3.23
2018-06-29T08:32:40.234Z,3.43
2018-06-29T08:35:09.653Z,3.00
2018-06-29T08:37:38.644Z,3.80
2018-06-29T08:40:07.245Z,3.57
2018-06-29T08:42:36.002Z,3.20
2018-06-29T08:45:04.894Z,3.33
2018-06-29T08:47:33.016Z,3.10
2018-06-29T08:50:01.489Z,3.23
2018-06-29T08:52:29.901Z,2.93
2018-06-29T08:54:58.528Z,3.13
2018-06-29T08:57:26.991Z,3.07
2018-06-29T08:59:55.149Z,3.13
2018-06-29T09:02:23.593Z,3.40
2018-06-29T09:04:52.067Z,3.43
2018-06-29T09:07:20.509Z,3.40
2018-06-29T09:09:48.623Z,3.57
2018-06-29T09:12:17.105Z,3.40
2018-06-29T09:14:45.514Z,2.97
2018-06-29T09:17:13.966Z,2.70
2018-06-29T09:19:42.373Z,2.97
2018-06-29T09:22:10.826Z,3.07
2018-06-29T09:24:39.241Z,3.37
2018-06-29T09:27:07.710Z,3.00
2018-06-29T09:29:36.152Z,2.87
2018-06-29T09:32:04.654Z,3.10
2018-06-29T09:34:33.085Z,3.20
2018-06-29T09:37:01.245Z,3.03
2018-06-29T09:39:29.662Z,3.33
2018-06-29T09:41:58.107Z,3.00
2018-06-29T09:44:26.545Z,3.10
2018-06-29T09:46:54.992Z,2.80
2018-06-29T09:49:23.446Z,3.10
2018-06-29T09:51:51.871Z,2.70
2018-06-29T09:54:20.311Z,2.83
2018-06-29T09:56:48.730Z,3.20
2018-06-29T09:59:17.177Z,2.90
2018-06-29T10:01:45.590Z,3.33
2018-06-29T10:04:14.037Z,2.90
2018-06-29T10:06:42.461Z,3.20
2018-06-29T10:09:11.705Z,3.40
2018-06-29T10:11:40.210Z,3.27
2018-06-29T10:14:08.716Z,3.37
2018-06-29T10:16:37.109Z,3.23
2018-06-29T10:19:05.586Z,3.50
2018-06-29T10:21:34.027Z,3.37
2018-06-29T10:24:02.509Z,2.83
2018-06-29T10:26:30.967Z,3.40
2018-06-29T10:28:59.124Z,2.83
2018-06-29T10:31:27.541Z,3.20
2018-06-29T10:33:55.989Z,2.53
2018-06-29T10:36:24.394Z,2.90
2018-06-29T10:38:52.865Z,2.80
2018-06-29T10:41:21.310Z,2.47
2018-06-29T10:43:49.786Z,2.43
2018-06-29T10:46:18.234Z,2.90
2018-06-29T10:48:46.676Z,2.60
2018-06-29T10:51:15.158Z,3.03
2018-06-29T10:53:43.591Z,2.70
2018-06-29T10:56:12.061Z,2.67
2018-06-29T10:58:40.527Z,2.73
2018-06-29T11:01:09.060Z,2.73
2018-06-29T11:03:37.486Z,2.27
2018-06-29T11:06:05.942Z,2.40
2018-06-29T11:08:34.389Z,2.87
2018-06-29T11:11:02.875Z,2.67
2018-06-29T11:13:31.278Z,2.50
2018-06-29T11:15:59.733Z,2.63
2018-06-29T11:18:28.145Z,2.93
2018-06-29T11:20:56.929Z,3.20
2018-06-29T11:23:25.369Z,3.27
2018-06-29T11:25:53.813Z,2.50
2018-06-29T11:28:22.246Z,2.80
2018-06-29T11:30:50.336Z,2.80
2018-06-29T11:33:18.779Z,2.93
2018-06-29T11:35:47.218Z,2.80
2018-06-29T11:38:15.652Z,2.57
2018-06-29T11:40:44.060Z,2.93
2018-06-29T11:43:12.485Z,3.33
2018-06-29T11:45:40.889Z,3.10
2018-06-29T11:48:09.019Z,3.10
2018-06-29T11:50:37.428Z,2.90
2018-06-29T11:53:05.934Z,3.40
2018-06-29T11:55:34.126Z,3.13
2018-06-29T11:58:02.580Z,3.10
2018-06-29T12:00:31.009Z,3.00
2018-06-29T12:02:59.456Z,3.30
2018-06-29T12:05:27.873Z,3.60
2018-06-29T12:07:56.292Z,3.10
2018-06-29T12:10:24.726Z,3.47
2018-06-29T12:12:53.161Z,3.27
2018-06-29T12:15:21.381Z,3.17
2018-06-29T12:17:49.926Z,3.53
2018-06-29T12:20:18.367Z,2.83
2018-06-29T12:22:46.773Z,3.70
2018-06-29T12:25:14.901Z,3.93
2018-06-29T12:27:43.315Z,3.10
2018-06-29T12:30:11.482Z,3.23
2018-06-29T12:32:39.916Z,3.13
2018-06-29T12:35:08.371Z,3.20
2018-06-29T12:37:36.792Z,3.30
2018-06-29T12:40:05.297Z,3.20
2018-06-29T12:42:33.762Z,3.10
2018-06-29T12:45:02.209Z,3.27
2018-06-29T12:47:30.621Z,3.20
2018-06-29T12:49:59.065Z,3.23
2018-06-29T12:52:27.501Z,3.07
2018-06-29T12:54:55.613Z,3.10
2018-06-29T12:57:24.129Z,3.23
2018-06-29T12:59:52.542Z,3.00
2018-06-29T13:02:20.986Z,3.30
2018-06-29T13:04:49.463Z,3.87
2018-06-29T13:07:17.837Z,3.40
2018-06-29T13:09:46.261Z,3.83
2018-06-29T13:12:14.397Z,3.17
2018-06-29T13:14:42.813Z,3.27
2018-06-29T13:17:10.978Z,3.27
2018-06-29T13:19:39.397Z,3.73
2018-06-29T13:22:07.841Z,3.57
2018-06-29T13:24:35.972Z,3.50
2018-06-29T13:27:04.465Z,3.13
2018-06-29T13:29:32.925Z,3.10
2018-06-29T13:32:01.362Z,3.20
2018-06-29T13:34:29.865Z,3.60
2018-06-29T13:36:58.315Z,3.30
2018-06-29T13:39:26.745Z,3.30
2018-06-29T13:41:55.192Z,3.30
2018-06-29T13:44:23.631Z,3.70
2018-06-29T13:46:52.102Z,3.50
2018-06-29T13:49:20.556Z,3.30
2018-06-29T13:51:48.962Z,3.80
2018-06-29T13:54:17.402Z,3.33
2018-06-29T13:56:45.822Z,3.23
2018-06-29T13:59:14.273Z,3.30
2018-06-29T14:01:42.686Z,3.60
2018-06-29T14:04:11.142Z,5.00
2018-06-29T14:06:39.574Z,3.67
2018-06-29T14:09:07.785Z,3.30
2018-06-29T14:11:36.241Z,3.80
2018-06-29T14:14:04.691Z,3.20
2018-06-29T14:16:33.161Z,2.67
2018-06-29T14:19:01.611Z,3.33
2018-06-29T14:21:30.047Z,3.20
2018-06-29T14:23:58.197Z,3.50
2018-06-29T14:26:26.631Z,3.00
2018-06-29T14:28:55.135Z,3.33
2018-06-29T14:31:23.550Z,3.27
2018-06-29T14:33:51.759Z,3.00
2018-06-29T14:36:20.179Z,2.90
2018-06-29T14:38:48.613Z,3.10
2018-06-29T14:41:17.019Z,3.10
2018-06-29T14:43:45.541Z,3.10
2018-06-29T14:46:13.685Z,3.23
2018-06-29T14:48:42.113Z,3.13
2018-06-29T14:51:10.566Z,3.30
2018-06-29T14:53:38.998Z,3.20
2018-06-29T14:56:07.438Z,2.63
2018-06-29T14:58:35.873Z,3.60
2018-06-29T15:01:04.357Z,3.10
2018-06-29T15:03:32.797Z,2.90
2018-06-29T15:06:01.278Z,2.73
2018-06-29T15:08:29.794Z,2.77
2018-06-29T15:10:58.268Z,3.20
2018-06-29T15:13:28.721Z,3.27
2018-06-29T15:15:57.385Z,3.53
2018-06-29T15:18:25.724Z,3.70
2018-06-29T15:20:54.198Z,3.40
2018-06-29T15:23:22.653Z,2.87
2018-06-29T15:25:51.097Z,2.93
2018-06-29T15:28:19.580Z,3.10
2018-06-29T15:30:48.118Z,3.13
2018-06-29T15:33:16.566Z,3.10
2018-06-29T15:35:44.994Z,3.40
2018-06-29T15:38:13.458Z,2.97
2018-06-29T15:40:41.881Z,3.27
2018-06-29T15:43:11.455Z,3.47
2018-06-29T15:45:39.878Z,3.63
2018-06-29T15:48:08.713Z,3.40
2018-06-29T15:50:37.145Z,3.67
2018-06-29T15:53:05.977Z,3.30
2018-06-29T15:55:34.389Z,3.20
2018-06-29T15:58:02.881Z,3.33
2018-06-29T16:00:31.527Z,3.70
2018-06-29T16:02:59.974Z,3.70
2018-06-29T16:05:28.405Z,3.30
2018-06-29T16:07:57.013Z,3.80
2018-06-29T16:10:25.511Z,3.83
2018-06-29T16:12:54.036Z,3.40
2018-06-29T16:15:22.582Z,4.30
2018-06-29T16:17:51.051Z,3.80
2018-06-29T16:20:19.481Z,3.93
2018-06-29T16:22:47.989Z,3.70
2018-06-29T16:25:16.463Z,3.63
2018-06-29T16:27:44.937Z,3.60
2018-06-29T16:30:13.425Z,4.13
2018-06-29T16:32:41.877Z,3.80
2018-06-29T16:35:10.470Z,3.53
2018-06-29T16:37:38.901Z,3.47
2018-06-29T16:40:07.064Z,3.37
2018-06-29T16:42:35.487Z,3.57
2018-06-29T16:45:04.002Z,3.53
2018-06-29T16:47:32.420Z,3.70
2018-06-29T16:50:00.849Z,3.50
2018-06-29T16:52:29.299Z,3.50
2018-06-29T16:54:57.450Z,3.77
2018-06-29T16:57:25.570Z,3.83
2018-06-29T16:59:54.281Z,3.97
2018-06-29T17:02:22.747Z,3.97
2018-06-29T17:04:51.189Z,3.37
2018-06-29T17:07:27.526Z,3.57
2018-06-29T17:09:55.955Z,4.03
2018-06-29T17:12:24.520Z,4.33
2018-06-29T17:14:52.533Z,3.80
2018-06-29T17:17:20.994Z,3.70
2018-06-29T17:19:49.430Z,3.90
2018-06-29T17:22:17.928Z,3.87
2018-06-29T17:24:46.394Z,4.03
2018-06-29T17:27:14.528Z,4.20
2018-06-29T17:29:42.975Z,2.80
2018-06-29T17:32:11.445Z,3.53
2018-06-29T17:34:39.879Z,3.83
2018-06-29T17:37:08.432Z,3.17
2018-06-29T17:39:36.883Z,3.60
2018-06-29T17:42:05.354Z,3.40
2018-06-29T17:44:34.474Z,3.23
2018-06-29T17:47:02.963Z,3.50
2018-06-29T17:49:31.486Z,3.83
2018-06-29T17:51:59.954Z,3.50
2018-06-29T17:54:28.379Z,3.60
2018-06-29T17:56:56.536Z,3.30
2018-06-29T17:59:25.001Z,3.70
2018-06-29T18:01:53.497Z,3.53
2018-06-29T18:04:22.004Z,4.13
2018-06-29T18:06:50.451Z,3.60
2018-06-29T18:09:18.878Z,3.53
2018-06-29T18:11:47.332Z,3.63
2018-06-29T18:14:15.815Z,3.77
2018-06-29T18:16:44.245Z,3.60
2018-06-29T18:19:12.726Z,3.90
2018-06-29T18:21:41.191Z,3.53
2018-06-29T18:24:09.687Z,3.57
2018-06-29T18:26:38.910Z,3.57
2018-06-29T18:29:12.822Z,3.87
2018-06-29T18:31:41.434Z,3.47
2018-06-29T18:34:09.876Z,3.67
2018-06-29T18:36:38.332Z,4.17
2018-06-29T18:39:08.483Z,3.70
2018-06-29T18:41:37.015Z,3.83
2018-06-29T18:44:05.541Z,3.67
2018-06-29T18:46:33.989Z,3.87
2018-06-29T18:49:02.466Z,3.67
2018-06-29T18:51:31.133Z,3.90
2018-06-29T18:53:59.594Z,3.80
2018-06-29T18:56:28.053Z,3.43
2018-06-29T18:58:56.523Z,4.10
2018-06-29T19:01:25.046Z,4.03
2018-06-29T19:03:53.543Z,3.63
2018-06-29T19:06:22.053Z,3.80
2018-06-29T19:08:50.647Z,3.97
2018-06-29T19:11:18.812Z,4.03
2018-06-29T19:13:47.263Z,4.03
2018-06-29T19:16:16.417Z,3.93
2018-06-29T19:18:44.551Z,3.90
2018-06-29T19:21:13.033Z,4.10
2018-06-29T19:23:41.540Z,3.63
2018-06-29T19:26:09.991Z,3.30
2018-06-29T19:28:38.497Z,3.70
2018-06-29T19:31:07.868Z,3.60
2018-06-29T19:33:36.991Z,3.87
2018-06-29T19:36:05.575Z,3.63
2018-06-29T19:38:34.058Z,4.00
2018-06-29T19:41:02.180Z,3.90
2018-06-29T19:43:30.656Z,3.90
2018-06-29T19:45:59.109Z,4.00
2018-06-29T19:48:27.572Z,3.90
2018-06-29T19:50:56.003Z,6.30
2018-06-29T19:53:24.457Z,7.07
2018-06-29T19:55:52.878Z,4.00
2018-06-29T19:58:21.310Z,4.20
2018-06-29T20:00:49.714Z,3.97
2018-06-29T20:03:18.169Z,4.70
2018-06-29T20:05:46.629Z,12.57
2018-06-29T20:08:15.085Z,19.00
2018-06-29T20:10:44.069Z,9.57
2018-06-29T20:13:12.528Z,9.10
2018-06-29T20:15:41.061Z,18.20
2018-06-29T20:18:09.546Z,11.70
2018-06-29T20:20:37.991Z,9.73
2018-06-29T20:23:06.485Z,6.10
2018-06-29T20:25:34.913Z,38.27
2018-06-29T20:28:03.621Z,25.23
2018-06-29T20:30:32.129Z,71.27
2018-06-29T20:33:00.670Z,85.20
2018-06-29T20:35:29.089Z,9.43
2018-06-29T20:37:57.556Z,16.57
2018-06-29T20:40:26.037Z,4.80
2018-06-29T20:42:54.485Z,5.07
2018-06-29T20:45:22.973Z,4.37
2018-06-29T20:47:51.452Z,4.57
2018-06-29T20:50:19.974Z,4.17
2018-06-29T20:52:48.409Z,4.77
2018-06-29T20:55:16.865Z,4.70
2018-06-29T20:57:45.584Z,4.37
2018-06-29T21:00:14.079Z,4.87
2018-06-29T21:02:42.515Z,4.40
2018-06-29T21:05:11.009Z,5.17
2018-06-29T21:07:39.461Z,4.33
2018-06-29T21:10:07.971Z,5.47
2018-06-29T21:12:36.418Z,6.27
2018-06-29T21:15:05.142Z,5.87
2018-06-29T21:17:33.649Z,5.53
2018-06-29T21:20:02.099Z,6.00
2018-06-29T21:22:30.593Z,5.77
2018-06-29T21:24:59.063Z,4.57
2018-06-29T21:27:27.558Z,4.43
2018-06-29T21:29:56.037Z,4.30
2018-06-29T21:32:24.502Z,4.30
2018-06-29T21:34:52.946Z,4.63
2018-06-29T21:37:21.437Z,4.47
2018-06-29T21:39:49.572Z,4.13
2018-06-29T21:42:18.033Z,4.80
2018-06-29T21:44:46.490Z,4.17
2018-06-29T21:47:15.018Z,4.67
2018-06-29T21:49:43.101Z,4.43
2018-06-29T21:52:11.590Z,4.70
2018-06-29T21:54:40.038Z,4.50
2018-06-29T21:57:08.521Z,4.83
2018-06-29T21:59:36.998Z,4.93
2018-06-29T22:02:05.657Z,4.57
2018-06-29T22:04:34.120Z,4.90
2018-06-29T22:07:02.587Z,4.77
2018-06-29T22:09:31.067Z,4.50
2018-06-29T22:11:59.190Z,5.27
2018-06-29T22:14:27.678Z,4.50
2018-06-29T22:16:56.195Z,4.57
2018-06-29T22:19:24.645Z,5.23
2018-06-29T22:21:53.156Z,5.43
2018-06-29T22:24:21.609Z,5.63
2018-06-29T22:26:50.062Z,5.00
2018-06-29T22:29:18.541Z,5.40
2018-06-29T22:31:46.989Z,5.53
2018-06-29T22:34:15.167Z,5.67
2018-06-29T22:36:43.622Z,4.97
2018-06-29T22:39:12.962Z,5.63
2018-06-29T22:41:42.453Z,5.73
2018-06-29T22:44:10.906Z,5.53
2018-06-29T22:46:39.375Z,5.13
2018-06-29T22:49:07.938Z,5.53
2018-06-29T22:51:36.386Z,6.13
2018-06-29T22:54:04.871Z,6.00
2018-06-29T22:56:33.346Z,5.50
2018-06-29T22:59:01.818Z,5.97
2018-06-29T23:01:30.310Z,5.77
2018-06-29T23:03:58.738Z,5.57
2018-06-29T23:06:27.175Z,5.63
2018-06-29T23:08:55.633Z,5.00
2018-06-29T23:11:23.802Z,4.87
2018-06-29T23:13:51.930Z,5.10
2018-06-29T23:16:20.406Z,4.60
2018-06-29T23:18:48.839Z,5.27
2018-06-29T23:21:17.288Z,5.60
2018-06-29T23:23:45.729Z,5.40
2018-06-29T23:26:14.196Z,5.20
2018-06-29T23:28:42.659Z,4.93
2018-06-29T23:31:10.821Z,4.40
2018-06-29T23:33:38.953Z,4.63
2018-06-29T23:36:07.442Z,5.00
2018-06-29T23:38:35.891Z,4.33
2018-06-29T23:41:04.393Z,5.17
2018-06-29T23:43:32.820Z,4.60
2018-06-29T23:46:00.990Z,5.13
2018-06-29T23:48:29.122Z,6.53
2018-06-29T23:50:57.559Z,6.30
2018-06-29T23:53:26.015Z,6.23
2018-06-29T23:55:54.133Z,6.43
2018-06-29T23:58:22.625Z,5.93
